Terminal Aerodrome Forecast
Issued by NWS

Home | Current Version | Previous Version | Text Only | Print | Product List | Glossary On
Versions: 1 2 3 4 5 6 7 8 9 10 11 12 13 14 15 16 17 18 19 20 21
000
FTPA31 PHFO 302324
TAFHOG
TAF
PHOG 302324Z 0100/0124 01010KT P6SM -RA SCT015 BKN035 BKN060
     FM010400 14007KT P6SM VCSH SCT012 SCT025 BKN080
     FM012000 01011KT P6SM SCT030 BKN050
      AMD LTD TO VIS AND WIND 0109/0116=

USA.gov is the U.S. government's official web portal to all federal, state and local government web resources and services.